• Join FlightAware (Why Join?)
  • Login
  • US Flag 
02:36AM EDT


 

Airport Tracker/Info


-or-


 

Live Flight TrackerFlight Track Log ✈ N373LD ✈ 06-Apr-2014 ✈ KCOD - KMLS

Flight Track Log - Related Links

Times and Time Zones

All times are in EDT time to prevent confusion due to time zone crossing. See the N373LD flight status page for this flight to view local times or setup timezone preferences in your user account.

Time Position Orientation Groundspeed Altitude Reporting Facility
EDT Latitude Longitude Course Direction KTS MPH feet Rate Location/Type
02:28PM 44.5339 -108.9569 46° Northeast 147 169 8,600  Level Salt Lake Center
02:29PM 44.5653 -108.9111 46° Northeast 155 178 10,200 1,440 Climbing Salt Lake Center
02:30PM 44.5961 -108.8606 49° Northeast 163 188 11,600 1,380 Climbing Salt Lake Center
02:31PM 44.6286 -108.8114 47° Northeast 166 191 13,100 1,500 Climbing Salt Lake Center
02:32PM 44.6675 -108.7517 48° Northeast 168 193 14,800 1,500 Climbing Salt Lake Center
02:33PM 44.7006 -108.7000 48° Northeast 173 199 16,300 1,380 Climbing Salt Lake Center
02:34PM 44.7353 -108.6453 48° Northeast 183 211 17,700 1,260 Climbing Salt Lake Center
02:35PM 44.7703 -108.5908 48° Northeast 184 212 19,000 1,200 Climbing Salt Lake Center
02:36PM 44.8064 -108.5350 48° Northeast 189 217 20,300 960 Climbing Salt Lake Center
02:37PM 44.8447 -108.4758 48° Northeast 198 228 21,000 300 Climbing Salt Lake Center
02:38PM 44.8897 -108.4050 48° Northeast 230 265 21,000  Level Salt Lake Center
02:39PM 44.9372 -108.3311 48° Northeast 247 284 21,000  Level Salt Lake Center
02:40PM 44.9942 -108.2419 48° Northeast 251 289 21,000  Level Salt Lake Center
02:41PM 45.0414 -108.1689 48° Northeast 251 289 21,000  Level Salt Lake Center
02:42PM 45.0875 -108.0936 49° Northeast 251 289 21,000  Level Salt Lake Center
02:43PM 45.1353 -108.0178 48° Northeast 254 292 21,000  Level Salt Lake Center
02:44PM 45.1831 -107.9414 48° Northeast 256 295 21,000  Level Salt Lake Center
02:46PM 45.2306 -107.8653 48° Northeast 257 296 21,000  Level Salt Lake Center
02:47PM 45.2781 -107.7892 48° Northeast 257 296 21,000  Level Salt Lake Center
02:48PM 45.3250 -107.7136 49° Northeast 256 295 21,000  Level Salt Lake Center
02:49PM 45.3825 -107.6217 48° Northeast 257 296 21,000  Level Salt Lake Center
02:50PM 45.4303 -107.5450 48° Northeast 258 297 21,000  Level Salt Lake Center
02:51PM 45.4775 -107.4678 49° Northeast 258 297 21,000  Level Salt Lake Center
02:52PM 45.5242 -107.3925 48° Northeast 257 296 21,000  Level Salt Lake Center
02:53PM 45.5711 -107.3156 49° Northeast 257 296 21,000  Level Salt Lake Center
02:54PM 45.6156 -107.2425 49° Northeast 247 284 21,000  Level Salt Lake Center
02:55PM 45.6569 -107.1756 48° Northeast 229 264 21,000  Level Salt Lake Center
02:56PM 45.7125 -107.0858 48° Northeast 241 277 21,000  Level Salt Lake Center
02:57PM 45.7581 -107.0100 49° Northeast 247 284 21,000  Level Salt Lake Center
02:58PM 45.8036 -106.9339 49° Northeast 247 284 21,000  Level Salt Lake Center
02:59PM 45.8494 -106.8581 49° Northeast 248 285 21,000  Level Salt Lake Center
03:00PM 45.8956 -106.7817 49° Northeast 250 288 21,000  Level Salt Lake Center
03:01PM 45.9417 -106.7069 48° Northeast 250 288 21,000  Level Salt Lake Center
03:02PM 45.9967 -106.6150 49° Northeast 251 289 21,000 -540 Level Salt Lake Center
03:03PM 46.0414 -106.5392 50° Northeast 251 289 20,000 -1,260 Descending Salt Lake Center
03:04PM 46.0847 -106.4656 50° Northeast 248 285 18,500 -1,500 Descending Salt Lake Center
03:05PM 46.1272 -106.3942 49° Northeast 240 276 16,900 -1,500 Descending Salt Lake Center
03:06PM 46.1700 -106.3225 49° Northeast 240 276 15,500 -1,500 Descending Salt Lake Center
03:07PM 46.2111 -106.2547 49° Northeast 232 267 13,900 -1,680 Descending Salt Lake Center
03:08PM 46.2478 -106.1878 52° Northeast 224 258 12,100 -1,920 Descending Salt Lake Center
03:09PM 46.2933 -106.1103 50° Northeast 216 249 10,000 -2,040 Descending Salt Lake Center